sensor_id;sensor_type;location;lat;lon;timestamp;pressure;altitude;pressure_sealevel;temperature;humidity
46001;BME280;72226;48.272;11.180;2023-08-30T00:01:29;95298.91;;;12.72;100.00
46001;BME280;72226;48.272;11.180;2023-08-30T00:03:54;95299.00;;;12.64;100.00
46001;BME280;72226;48.272;11.180;2023-08-30T00:06:20;95302.94;;;12.91;100.00
46001;BME280;72226;48.272;11.180;2023-08-30T00:08:45;95305.94;;;12.77;100.00
46001;BME280;72226;48.272;11.180;2023-08-30T00:11:11;95291.84;;;12.92;100.00
46001;BME280;72226;48.272;11.180;2023-08-30T00:13:36;95297.09;;;12.76;100.00
46001;BME280;72226;48.272;11.180;2023-08-30T00:16:01;95289.03;;;12.64;100.00
46001;BME280;72226;48.272;11.180;2023-08-30T00:18:28;95289.03;;;12.76;100.00
46001;BME280;72226;48.272;11.180;2023-08-30T00:20:53;95291.16;;;12.71;100.00
46001;BME280;72226;48.272;11.180;2023-08-30T00:23:19;95286.34;;;12.64;100.00
46001;BME280;72226;48.272;11.180;2023-08-30T00:25:44;95288.81;;;12.57;100.00
46001;BME280;72226;48.272;11.180;2023-08-30T00:28:09;95289.16;;;12.92;100.00
46001;BME280;72226;48.272;11.180;2023-08-30T00:30:35;95293.53;;;12.85;100.00
46001;BME280;72226;48.272;11.180;2023-08-30T00:33:01;95296.22;;;12.72;100.00
46001;BME280;72226;48.272;11.180;2023-08-30T00:35:26;95294.88;;;12.78;100.00
46001;BME280;72226;48.272;11.180;2023-08-30T00:37:52;95291.16;;;12.71;100.00
46001;BME280;72226;48.272;11.180;2023-08-30T00:40:17;95291.72;;;12.52;100.00
46001;BME280;72226;48.272;11.180;2023-08-30T00:42:43;95284.44;;;12.77;100.00
46001;BME280;72226;48.272;11.180;2023-08-30T00:45:08;95288.91;;;12.61;100.00
46001;BME280;72226;48.272;11.180;2023-08-30T00:47:34;95287.78;;;12.49;100.00
46001;BME280;72226;48.272;11.180;2023-08-30T00:50:01;95288.00;;;12.44;100.00
46001;BME280;72226;48.272;11.180;2023-08-30T00:52:26;95284.75;;;12.39;100.00
46001;BME280;72226;48.272;11.180;2023-08-30T00:54:52;95279.91;;;12.32;100.00
46001;BME280;72226;48.272;11.180;2023-08-30T00:57:17;95280.72;;;12.32;100.00
46001;BME280;72226;48.272;11.180;2023-08-30T00:59:43;95282.38;;;12.37;100.00
46001;BME280;72226;48.272;11.180;2023-08-30T01:02:09;95281.63;;;12.49;100.00
46001;BME280;72226;48.272;11.180;2023-08-30T01:04:34;95281.03;;;12.31;100.00
46001;BME280;72226;48.272;11.180;2023-08-30T01:07:00;95283.84;;;12.34;100.00
46001;BME280;72226;48.272;11.180;2023-08-30T01:09:25;95278.81;;;12.33;100.00
46001;BME280;72226;48.272;11.180;2023-08-30T01:12:01;95279.41;;;12.51;100.00
46001;BME280;72226;48.272;11.180;2023-08-30T01:14:40;95275.56;;;12.52;100.00
46001;BME280;72226;48.272;11.180;2023-08-30T01:17:10;95272.41;;;12.38;100.00
46001;BME280;72226;48.272;11.180;2023-08-30T01:22:47;95281.06;;;12.55;100.00
46001;BME280;72226;48.272;11.180;2023-08-30T01:25:48;95273.31;;;12.29;100.00
46001;BME280;72226;48.272;11.180;2023-08-30T01:28:19;95274.78;;;12.27;100.00
46001;BME280;72226;48.272;11.180;2023-08-30T01:30:46;95283.34;;;12.20;100.00
46001;BME280;72226;48.272;11.180;2023-08-30T01:33:14;95277.00;;;12.25;100.00
46001;BME280;72226;48.272;11.180;2023-08-30T01:35:40;95275.75;;;12.22;100.00
46001;BME280;72226;48.272;11.180;2023-08-30T01:38:07;95275.78;;;12.34;100.00
46001;BME280;72226;48.272;11.180;2023-08-30T01:40:41;95270.19;;;12.40;100.00
46001;BME280;72226;48.272;11.180;2023-08-30T01:43:07;95273.63;;;12.28;100.00
46001;BME280;72226;48.272;11.180;2023-08-30T01:45:38;95275.78;;;12.34;100.00
46001;BME280;72226;48.272;11.180;2023-08-30T01:48:04;95273.66;;;12.40;100.00
46001;BME280;72226;48.272;11.180;2023-08-30T01:50:32;95268.72;;;12.30;100.00
46001;BME280;72226;48.272;11.180;2023-08-30T01:52:59;95269.81;;;12.29;100.00
46001;BME280;72226;48.272;11.180;2023-08-30T01:55:24;95266.94;;;12.34;100.00
46001;BME280;72226;48.272;11.180;2023-08-30T01:57:51;95264.78;;;12.27;100.00
46001;BME280;72226;48.272;11.180;2023-08-30T02:00:17;95264.00;;;12.27;100.00
46001;BME280;72226;48.272;11.180;2023-08-30T02:02:42;95262.53;;;12.17;100.00
46001;BME280;72226;48.272;11.180;2023-08-30T02:05:07;95264.09;;;12.18;100.00
46001;BME280;72226;48.272;11.180;2023-08-30T02:10:28;95267.28;;;12.45;100.00
46001;BME280;72226;48.272;11.180;2023-08-30T02:12:57;95267.56;;;12.19;100.00
46001;BME280;72226;48.272;11.180;2023-08-30T02:15:25;95270.25;;;12.19;100.00
46001;BME280;72226;48.272;11.180;2023-08-30T02:17:51;95270.16;;;12.27;100.00
46001;BME280;72226;48.272;11.180;2023-08-30T02:20:17;95276.81;;;12.42;100.00
46001;BME280;72226;48.272;11.180;2023-08-30T02:22:43;95278.72;;;12.42;100.00
46001;BME280;72226;48.272;11.180;2023-08-30T02:25:08;95275.53;;;12.27;100.00
46001;BME280;72226;48.272;11.180;2023-08-30T02:27:35;95279.16;;;12.44;100.00
46001;BME280;72226;48.272;11.180;2023-08-30T02:30:01;95281.94;;;12.47;100.00
46001;BME280;72226;48.272;11.180;2023-08-30T02:32:28;95275.47;;;12.48;100.00
46001;BME280;72226;48.272;11.180;2023-08-30T02:34:53;95276.56;;;12.47;100.00
46001;BME280;72226;48.272;11.180;2023-08-30T02:37:19;95273.53;;;12.37;100.00
46001;BME280;72226;48.272;11.180;2023-08-30T02:39:44;95268.38;;;12.31;100.00
46001;BME280;72226;48.272;11.180;2023-08-30T02:42:10;95274.31;;;12.37;100.00
46001;BME280;72226;48.272;11.180;2023-08-30T02:44:35;95276.91;;;12.46;100.00
46001;BME280;72226;48.272;11.180;2023-08-30T02:47:01;95264.59;;;12.32;100.00
46001;BME280;72226;48.272;11.180;2023-08-30T02:49:26;95272.22;;;12.43;100.00
46001;BME280;72226;48.272;11.180;2023-08-30T02:51:52;95272.78;;;12.48;100.00
46001;BME280;72226;48.272;11.180;2023-08-30T02:54:17;95271.53;;;12.33;100.00
46001;BME280;72226;48.272;11.180;2023-08-30T02:56:44;95273.97;;;12.26;100.00
46001;BME280;72226;48.272;11.180;2023-08-30T02:59:09;95273.34;;;12.42;100.00
46001;BME280;72226;48.272;11.180;2023-08-30T03:01:35;95274.00;;;12.39;100.00
46001;BME280;72226;48.272;11.180;2023-08-30T03:04:01;95268.50;;;12.35;100.00
46001;BME280;72226;48.272;11.180;2023-08-30T03:06:26;95269.97;;;12.32;100.00
46001;BME280;72226;48.272;11.180;2023-08-30T03:08:53;95265.72;;;12.56;100.00
46001;BME280;72226;48.272;11.180;2023-08-30T03:11:19;95268.19;;;12.49;100.00
46001;BME280;72226;48.272;11.180;2023-08-30T03:13:44;95266.16;;;12.46;100.00
46001;BME280;72226;48.272;11.180;2023-08-30T03:16:14;95263.16;;;12.60;100.00
46001;BME280;72226;48.272;11.180;2023-08-30T03:18:40;95262.03;;;12.73;98.75
46001;BME280;72226;48.272;11.180;2023-08-30T03:21:06;95265.38;;;12.70;99.00
46001;BME280;72226;48.272;11.180;2023-08-30T03:23:32;95263.03;;;12.56;99.81
46001;BME280;72226;48.272;11.180;2023-08-30T03:25:59;95263.69;;;12.65;98.98
46001;BME280;72226;48.272;11.180;2023-08-30T03:28:24;95266.50;;;12.56;99.92
46001;BME280;72226;48.272;11.180;2023-08-30T03:30:50;95269.31;;;12.60;100.00
46001;BME280;72226;48.272;11.180;2023-08-30T03:33:15;95273.47;;;12.57;99.47
46001;BME280;72226;48.272;11.180;2023-08-30T03:35:40;95267.50;;;12.40;100.00
46001;BME280;72226;48.272;11.180;2023-08-30T03:38:06;95264.03;;;12.39;100.00
46001;BME280;72226;48.272;11.180;2023-08-30T03:40:32;95268.06;;;12.57;100.00
46001;BME280;72226;48.272;11.180;2023-08-30T03:42:57;95264.94;;;12.55;100.00
46001;BME280;72226;48.272;11.180;2023-08-30T03:45:23;95268.84;;;12.58;98.87
46001;BME280;72226;48.272;11.180;2023-08-30T03:47:48;95263.91;;;12.36;100.00
46001;BME280;72226;48.272;11.180;2023-08-30T03:50:14;95265.50;;;12.49;100.00
46001;BME280;72226;48.272;11.180;2023-08-30T03:52:39;95273.75;;;12.31;100.00
46001;BME280;72226;48.272;11.180;2023-08-30T03:55:05;95269.91;;;12.20;100.00
46001;BME280;72226;48.272;11.180;2023-08-30T03:57:31;95271.03;;;12.19;100.00
46001;BME280;72226;48.272;11.180;2023-08-30T03:59:56;95266.34;;;12.28;100.00
46001;BME280;72226;48.272;11.180;2023-08-30T04:02:21;95269.38;;;12.15;100.00
46001;BME280;72226;48.272;11.180;2023-08-30T04:04:47;95271.91;;;12.11;100.00
46001;BME280;72226;48.272;11.180;2023-08-30T04:07:16;95277.94;;;12.08;100.00
46001;BME280;72226;48.272;11.180;2023-08-30T04:09:41;95272.59;;;12.08;100.00
46001;BME280;72226;48.272;11.180;2023-08-30T04:12:06;95275.41;;;12.12;100.00
46001;BME280;72226;48.272;11.180;2023-08-30T04:14:32;95277.16;;;12.07;100.00
46001;BME280;72226;48.272;11.180;2023-08-30T04:16:57;95272.59;;;12.08;100.00
46001;BME280;72226;48.272;11.180;2023-08-30T04:19:23;95275.09;;;12.25;100.00
46001;BME280;72226;48.272;11.180;2023-08-30T04:21:48;95273.28;;;12.17;100.00
46001;BME280;72226;48.272;11.180;2023-08-30T04:24:14;95274.50;;;12.20;100.00
46001;BME280;72226;48.272;11.180;2023-08-30T04:26:40;95272.38;;;12.13;100.00
46001;BME280;72226;48.272;11.180;2023-08-30T04:29:06;95281.22;;;12.14;100.00
46001;BME280;72226;48.272;11.180;2023-08-30T04:31:31;95278.25;;;12.27;100.00
46001;BME280;72226;48.272;11.180;2023-08-30T04:33:57;95279.34;;;12.26;100.00
46001;BME280;72226;48.272;11.180;2023-08-30T04:36:22;95267.47;;;12.15;100.00
46001;BME280;72226;48.272;11.180;2023-08-30T04:38:48;95268.25;;;12.16;100.00
46001;BME280;72226;48.272;11.180;2023-08-30T04:41:13;95272.50;;;12.17;100.00
46001;BME280;72226;48.272;11.180;2023-08-30T04:43:39;95274.41;;;12.16;100.00
46001;BME280;72226;48.272;11.180;2023-08-30T04:46:04;95280.44;;;12.13;100.00
46001;BME280;72226;48.272;11.180;2023-08-30T04:48:29;95272.59;;;12.08;100.00
46001;BME280;72226;48.272;11.180;2023-08-30T04:51:00;95281.16;;;12.34;100.00
46001;BME280;72226;48.272;11.180;2023-08-30T04:53:25;95278.81;;;12.33;98.80
46001;BME280;72226;48.272;11.180;2023-08-30T04:55:51;95279.47;;;12.18;100.00
46001;BME280;72226;48.272;11.180;2023-08-30T04:58:16;95279.88;;;12.20;100.00
46001;BME280;72226;48.272;11.180;2023-08-30T05:00:41;95279.88;;;12.20;100.00
46001;BME280;72226;48.272;11.180;2023-08-30T05:03:07;95282.16;;;12.18;100.00
46001;BME280;72226;48.272;11.180;2023-08-30T05:05:32;95279.13;;;12.31;100.00
46001;BME280;72226;48.272;11.180;2023-08-30T05:07:59;95280.47;;;12.38;98.98
46001;BME280;72226;48.272;11.180;2023-08-30T05:10:25;95291.81;;;12.55;98.95
46001;BME280;72226;48.272;11.180;2023-08-30T05:12:50;95277.69;;;12.46;98.62
46001;BME280;72226;48.272;11.180;2023-08-30T05:15:17;95279.16;;;12.56;97.23
46001;BME280;72226;48.272;11.180;2023-08-30T05:17:43;95282.19;;;12.42;99.04
46001;BME280;72226;48.272;11.180;2023-08-30T05:20:08;95284.97;;;12.46;98.13
46001;BME280;72226;48.272;11.180;2023-08-30T05:22:34;95278.72;;;12.54;98.08
46001;BME280;72226;48.272;11.180;2023-08-30T05:24:59;95287.00;;;12.49;98.04
46001;BME280;72226;48.272;11.180;2023-08-30T05:27:25;95289.69;;;12.49;98.34
46001;BME280;72226;48.272;11.180;2023-08-30T05:29:51;95293.53;;;12.60;97.54
46001;BME280;72226;48.272;11.180;2023-08-30T05:32:17;95281.97;;;12.60;96.94
46001;BME280;72226;48.272;11.180;2023-08-30T05:34:42;95285.88;;;12.50;98.49
46001;BME280;72226;48.272;11.180;2023-08-30T05:37:07;95286.44;;;12.43;97.73
46001;BME280;72226;48.272;11.180;2023-08-30T05:39:34;95281.16;;;12.47;98.44
46001;BME280;72226;48.272;11.180;2023-08-30T05:41:59;95279.38;;;12.39;100.00
46001;BME280;72226;48.272;11.180;2023-08-30T05:44:24;95280.47;;;12.38;100.00
46001;BME280;72226;48.272;11.180;2023-08-30T05:46:50;95286.41;;;12.31;100.00
46001;BME280;72226;48.272;11.180;2023-08-30T05:49:15;95282.84;;;12.39;100.00
46001;BME280;72226;48.272;11.180;2023-08-30T05:51:41;95283.19;;;12.62;100.00
46001;BME280;72226;48.272;11.180;2023-08-30T05:54:06;95286.59;;;12.71;97.76
46001;BME280;72226;48.272;11.180;2023-08-30T05:56:32;95279.72;;;12.86;96.22
46001;BME280;72226;48.272;11.180;2023-08-30T05:58:57;95287.47;;;12.75;97.43
46001;BME280;72226;48.272;11.180;2023-08-30T06:01:23;95284.00;;;12.99;94.16
46001;BME280;72226;48.272;11.180;2023-08-30T06:03:48;95278.81;;;12.94;95.79
46001;BME280;72226;48.272;11.180;2023-08-30T06:06:15;95280.63;;;12.90;96.34
46001;BME280;72226;48.272;11.180;2023-08-30T06:08:40;95288.50;;;12.95;96.20
46001;BME280;72226;48.272;11.180;2023-08-30T06:11:06;95296.78;;;13.02;94.53
46001;BME280;72226;48.272;11.180;2023-08-30T06:13:31;95296.22;;;12.85;96.55
46001;BME280;72226;48.272;11.180;2023-08-30T06:15:57;95298.44;;;12.83;98.50
46001;BME280;72226;48.272;11.180;2023-08-30T06:18:22;95299.34;;;12.99;98.04
46001;BME280;72226;48.272;11.180;2023-08-30T06:20:47;95296.78;;;12.90;97.47
46001;BME280;72226;48.272;11.180;2023-08-30T06:23:14;95301.13;;;12.95;98.54
46001;BME280;72226;48.272;11.180;2023-08-30T06:25:41;95300.25;;;13.03;95.57
46001;BME280;72226;48.272;11.180;2023-08-30T06:28:06;95309.63;;;13.21;95.68
46001;BME280;72226;48.272;11.180;2023-08-30T06:30:32;95303.16;;;13.35;94.36
46001;BME280;72226;48.272;11.180;2023-08-30T06:32:57;95298.19;;;13.24;95.65
46001;BME280;72226;48.272;11.180;2023-08-30T06:35:23;95293.38;;;13.30;96.43
46001;BME280;72226;48.272;11.180;2023-08-30T06:37:49;95295.69;;;13.56;95.83
46001;BME280;72226;48.272;11.180;2023-08-30T06:40:15;95294.16;;;13.83;90.86
46001;BME280;72226;48.272;11.180;2023-08-30T06:42:40;95299.22;;;13.73;92.03
46001;BME280;72226;48.272;11.180;2023-08-30T06:45:06;95299.91;;;13.69;92.36
46001;BME280;72226;48.272;11.180;2023-08-30T06:47:31;95291.69;;;13.78;92.43
46001;BME280;72226;48.272;11.180;2023-08-30T06:49:57;95296.28;;;14.06;91.63
46001;BME280;72226;48.272;11.180;2023-08-30T06:52:23;95295.25;;;14.10;91.36
46001;BME280;72226;48.272;11.180;2023-08-30T06:54:48;95297.13;;;14.22;91.11
46001;BME280;72226;48.272;11.180;2023-08-30T06:57:13;95297.75;;;14.47;86.58
46001;BME280;72226;48.272;11.180;2023-08-30T06:59:39;95290.88;;;14.34;87.75
46001;BME280;72226;48.272;11.180;2023-08-30T07:02:04;95287.41;;;14.33;84.99
46001;BME280;72226;48.272;11.180;2023-08-30T07:04:30;95286.41;;;14.26;86.59
46001;BME280;72226;48.272;11.180;2023-08-30T07:06:55;95281.22;;;14.49;84.62
46001;BME280;72226;48.272;11.180;2023-08-30T07:09:20;95288.66;;;14.68;84.37
46001;BME280;72226;48.272;11.180;2023-08-30T07:11:47;95282.75;;;14.78;85.53
46001;BME280;72226;48.272;11.180;2023-08-30T07:14:13;95287.16;;;14.70;84.82
46001;BME280;72226;48.272;11.180;2023-08-30T07:16:40;95283.00;;;14.73;85.65
46001;BME280;72226;48.272;11.180;2023-08-30T07:19:05;95282.97;;;14.89;83.20
46001;BME280;72226;48.272;11.180;2023-08-30T07:21:31;95286.22;;;14.78;82.50
46001;BME280;72226;48.272;11.180;2023-08-30T07:23:56;95290.13;;;14.81;83.49
46001;BME280;72226;48.272;11.180;2023-08-30T07:26:21;95293.25;;;14.83;83.55
46001;BME280;72226;48.272;11.180;2023-08-30T07:28:47;95295.53;;;14.81;83.58
46001;BME280;72226;48.272;11.180;2023-08-30T07:31:12;95287.88;;;14.67;82.99
46001;BME280;72226;48.272;11.180;2023-08-30T07:33:43;95289.94;;;14.42;86.24
46001;BME280;72226;48.272;11.180;2023-08-30T07:36:09;95285.34;;;14.58;84.86
46001;BME280;72226;48.272;11.180;2023-08-30T07:38:34;95290.88;;;14.50;87.12
46001;BME280;72226;48.272;11.180;2023-08-30T07:41:00;95293.00;;;14.56;87.48
46001;BME280;72226;48.272;11.180;2023-08-30T07:43:25;95292.22;;;14.72;83.94
46001;BME280;72226;48.272;11.180;2023-08-30T07:45:51;95285.00;;;14.76;82.01
46001;BME280;72226;48.272;11.180;2023-08-30T07:48:16;95288.91;;;14.63;83.78
46001;BME280;72226;48.272;11.180;2023-08-30T07:50:41;95291.72;;;14.66;84.22
46001;BME280;72226;48.272;11.180;2023-08-30T07:53:07;95297.78;;;14.95;82.41
46001;BME280;72226;48.272;11.180;2023-08-30T07:55:32;95292.78;;;15.13;82.43
46001;BME280;72226;48.272;11.180;2023-08-30T07:57:58;95292.53;;;15.18;78.38
46001;BME280;72226;48.272;11.180;2023-08-30T08:00:23;95296.31;;;15.33;77.98
46001;BME280;72226;48.272;11.180;2023-08-30T08:02:48;95300.38;;;15.42;78.30
46001;BME280;72226;48.272;11.180;2023-08-30T08:05:14;95294.25;;;15.26;77.58
46001;BME280;72226;48.272;11.180;2023-08-30T08:07:41;95305.84;;;15.26;77.88
46001;BME280;72226;48.272;11.180;2023-08-30T08:10:07;95302.19;;;15.19;78.33
46001;BME280;72226;48.272;11.180;2023-08-30T08:12:33;95302.66;;;15.40;77.47
46001;BME280;72226;48.272;11.180;2023-08-30T08:14:58;95302.41;;;15.65;76.88
46001;BME280;72226;48.272;11.180;2023-08-30T08:17:24;95306.75;;;15.50;77.45
46001;BME280;72226;48.272;11.180;2023-08-30T08:19:49;95300.59;;;15.88;76.58
46001;BME280;72226;48.272;11.180;2023-08-30T08:22:15;95292.47;;;16.08;74.11
46001;BME280;72226;48.272;11.180;2023-08-30T08:24:41;95296.28;;;16.26;74.82
46001;BME280;72226;48.272;11.180;2023-08-30T08:27:06;95291.03;;;16.14;74.49
46001;BME280;72226;48.272;11.180;2023-08-30T08:29:32;95289.00;;;16.07;75.11
46001;BME280;72226;48.272;11.180;2023-08-30T08:31:57;95289.34;;;16.06;75.03
46001;BME280;72226;48.272;11.180;2023-08-30T08:34:22;95292.97;;;15.94;76.44
46001;BME280;72226;48.272;11.180;2023-08-30T08:36:48;95288.72;;;16.12;76.14
46001;BME280;72226;48.272;11.180;2023-08-30T08:39:13;95291.91;;;15.79;74.59
46001;BME280;72226;48.272;11.180;2023-08-30T08:41:41;95289.72;;;16.04;74.32
46001;BME280;72226;48.272;11.180;2023-08-30T08:44:07;95285.91;;;16.28;75.46
46001;BME280;72226;48.272;11.180;2023-08-30T08:46:35;95288.63;;;16.74;75.02
46001;BME280;72226;48.272;11.180;2023-08-30T08:51:35;95293.09;;;16.86;70.57
46001;BME280;72226;48.272;11.180;2023-08-30T08:54:03;95292.38;;;16.89;71.91
46001;BME280;72226;48.272;11.180;2023-08-30T08:56:32;95290.25;;;16.56;71.99
46001;BME280;72226;48.272;11.180;2023-08-30T08:58:59;95299.69;;;16.65;71.02
46001;BME280;72226;48.272;11.180;2023-08-30T09:01:25;95293.47;;;16.42;71.31
46001;BME280;72226;48.272;11.180;2023-08-30T09:03:51;95286.16;;;16.42;71.57
46001;BME280;72226;48.272;11.180;2023-08-30T09:06:17;95287.38;;;16.91;71.89
46001;BME280;72226;48.272;11.180;2023-08-30T09:08:43;95291.13;;;17.09;68.62
46001;BME280;72226;48.272;11.180;2023-08-30T09:11:08;95285.44;;;16.92;71.11
46001;BME280;72226;48.272;11.180;2023-08-30T09:13:33;95283.69;;;17.03;70.89
46001;BME280;72226;48.272;11.180;2023-08-30T09:15:59;95276.59;;;17.21;70.14
46001;BME280;72226;48.272;11.180;2023-08-30T09:18:25;95281.69;;;17.53;67.51
46001;BME280;72226;48.272;11.180;2023-08-30T09:21:09;95278.75;;;17.65;67.03
46001;BME280;72226;48.272;11.180;2023-08-30T09:23:35;95279.75;;;17.23;67.40
46001;BME280;72226;48.272;11.180;2023-08-30T09:26:01;95282.00;;;16.95;69.36
46001;BME280;72226;48.272;11.180;2023-08-30T09:28:27;95277.78;;;16.74;68.56
46001;BME280;72226;48.272;11.180;2023-08-30T09:30:53;95272.56;;;16.62;69.62
46001;BME280;72226;48.272;11.180;2023-08-30T09:33:31;95284.06;;;16.55;71.21
46001;BME280;72226;48.272;11.180;2023-08-30T09:36:00;95272.66;;;16.69;70.18
46001;BME280;72226;48.272;11.180;2023-08-30T09:38:26;95277.47;;;16.76;69.62
46001;BME280;72226;48.272;11.180;2023-08-30T09:40:52;95278.72;;;16.82;69.00
46001;BME280;72226;48.272;11.180;2023-08-30T09:43:19;95277.53;;;16.79;67.75
46001;BME280;72226;48.272;11.180;2023-08-30T09:45:47;95285.38;;;16.65;68.24
46001;BME280;72226;48.272;11.180;2023-08-30T09:48:13;95279.00;;;16.54;68.74
46001;BME280;72226;48.272;11.180;2023-08-30T09:50:41;95275.09;;;16.28;68.83
46001;BME280;72226;48.272;11.180;2023-08-30T09:53:09;95271.03;;;16.18;69.06
46001;BME280;72226;48.272;11.180;2023-08-30T09:55:35;95273.31;;;16.16;69.56
46001;BME280;72226;48.272;11.180;2023-08-30T09:58:02;95262.34;;;16.52;69.32
46001;BME280;72226;48.272;11.180;2023-08-30T10:00:27;95266.66;;;16.56;71.20
46001;BME280;72226;48.272;11.180;2023-08-30T10:02:53;95255.84;;;16.79;68.41
46001;BME280;72226;48.272;11.180;2023-08-30T10:05:19;95259.41;;;17.10;67.92
46001;BME280;72226;48.272;11.180;2023-08-30T10:07:45;95257.09;;;17.39;63.78
46001;BME280;72226;48.272;11.180;2023-08-30T10:10:12;95261.97;;;16.99;64.03
46001;BME280;72226;48.272;11.180;2023-08-30T10:12:38;95258.69;;;17.13;66.67
46001;BME280;72226;48.272;11.180;2023-08-30T10:15:05;95247.78;;;17.36;64.67
46001;BME280;72226;48.272;11.180;2023-08-30T10:17:34;95244.75;;;17.41;64.56
46001;BME280;72226;48.272;11.180;2023-08-30T10:20:04;95249.03;;;17.42;66.05
46001;BME280;72226;48.272;11.180;2023-08-30T10:22:35;95241.56;;;17.05;66.55
46001;BME280;72226;48.272;11.180;2023-08-30T10:25:05;95239.63;;;16.79;67.83
46001;BME280;72226;48.272;11.180;2023-08-30T10:27:33;95236.06;;;16.52;67.71
46001;BME280;72226;48.272;11.180;2023-08-30T10:30:01;95241.28;;;16.87;66.23
46001;BME280;72226;48.272;11.180;2023-08-30T10:32:27;95237.00;;;17.13;61.39
46001;BME280;72226;48.272;11.180;2023-08-30T10:34:53;95234.97;;;17.33;61.10
46001;BME280;72226;48.272;11.180;2023-08-30T10:37:26;95237.91;;;17.51;61.27
46001;BME280;72226;48.272;11.180;2023-08-30T10:39:52;95239.50;;;17.86;62.03
46001;BME280;72226;48.272;11.180;2023-08-30T10:42:22;95232.88;;;18.20;59.40
46001;BME280;72226;48.272;11.180;2023-08-30T10:44:48;95230.75;;;18.40;59.74
46001;BME280;72226;48.272;11.180;2023-08-30T10:47:30;95226.56;;;18.46;60.65
46001;BME280;72226;48.272;11.180;2023-08-30T10:49:59;95230.09;;;18.54;59.32
46001;BME280;72226;48.272;11.180;2023-08-30T10:52:27;95226.69;;;18.64;59.29
46001;BME280;72226;48.272;11.180;2023-08-30T10:54:53;95233.03;;;18.35;59.86
46001;BME280;72226;48.272;11.180;2023-08-30T10:57:24;95232.72;;;18.43;59.92
46001;BME280;72226;48.272;11.180;2023-08-30T11:02:44;95223.75;;;17.98;58.86
46001;BME280;72226;48.272;11.180;2023-08-30T11:05:11;95222.72;;;18.10;60.22
46001;BME280;72226;48.272;11.180;2023-08-30T11:07:36;95224.22;;;18.48;56.74
46001;BME280;72226;48.272;11.180;2023-08-30T11:10:05;95225.69;;;18.39;54.32
46001;BME280;72226;48.272;11.180;2023-08-30T11:12:34;95228.56;;;18.57;55.87
46001;BME280;72226;48.272;11.180;2023-08-30T11:15:00;95229.75;;;18.59;56.38
46001;BME280;72226;48.272;11.180;2023-08-30T11:17:26;95224.78;;;18.68;56.85
46001;BME280;72226;48.272;11.180;2023-08-30T11:19:57;95233.34;;;18.70;56.98
46001;BME280;72226;48.272;11.180;2023-08-30T11:22:30;95227.47;;;18.65;56.96
46001;BME280;72226;48.272;11.180;2023-08-30T11:24:55;95225.38;;;18.47;56.82
46001;BME280;72226;48.272;11.180;2023-08-30T11:27:21;95224.19;;;18.45;57.21
46001;BME280;72226;48.272;11.180;2023-08-30T11:29:46;95222.63;;;18.40;58.08
46001;BME280;72226;48.272;11.180;2023-08-30T11:32:11;95224.91;;;18.38;58.95
46001;BME280;72226;48.272;11.180;2023-08-30T11:34:37;95214.06;;;18.38;60.13
46001;BME280;72226;48.272;11.180;2023-08-30T11:37:02;95222.22;;;18.42;60.23
46001;BME280;72226;48.272;11.180;2023-08-30T11:39:28;95222.19;;;18.38;60.69
46001;BME280;72226;48.272;11.180;2023-08-30T11:41:54;95226.38;;;18.29;61.89
46001;BME280;72226;48.272;11.180;2023-08-30T11:44:23;95223.50;;;18.11;62.19
46001;BME280;72226;48.272;11.180;2023-08-30T11:46:48;95226.50;;;18.02;63.89
46001;BME280;72226;48.272;11.180;2023-08-30T11:49:15;95228.81;;;18.00;64.67
46001;BME280;72226;48.272;11.180;2023-08-30T11:51:41;95232.09;;;17.83;66.99
46001;BME280;72226;48.272;11.180;2023-08-30T11:54:07;95221.25;;;17.83;67.49
46001;BME280;72226;48.272;11.180;2023-08-30T11:56:33;95219.69;;;17.82;67.16
46001;BME280;72226;48.272;11.180;2023-08-30T11:59:00;95220.38;;;17.75;67.97
46001;BME280;72226;48.272;11.180;2023-08-30T12:01:26;95223.00;;;17.98;66.54
46001;BME280;72226;48.272;11.180;2023-08-30T12:03:51;95231.72;;;17.81;67.36
46001;BME280;72226;48.272;11.180;2023-08-30T12:06:17;95220.84;;;17.81;67.33
46001;BME280;72226;48.272;11.180;2023-08-30T12:08:42;95221.84;;;17.69;66.01
46001;BME280;72226;48.272;11.180;2023-08-30T12:11:18;95220.44;;;17.78;65.64
46001;BME280;72226;48.272;11.180;2023-08-30T12:13:44;95220.34;;;17.71;65.10
46001;BME280;72226;48.272;11.180;2023-08-30T12:16:15;95213.22;;;17.90;64.63
46001;BME280;72226;48.272;11.180;2023-08-30T12:18:41;95212.47;;;17.93;63.88
46001;BME280;72226;48.272;11.180;2023-08-30T12:21:07;95215.97;;;17.97;64.78
46001;BME280;72226;48.272;11.180;2023-08-30T12:23:33;95211.19;;;18.20;63.24
46001;BME280;72226;48.272;11.180;2023-08-30T12:26:06;95210.75;;;18.15;61.43
46001;BME280;72226;48.272;11.180;2023-08-30T12:28:33;95210.91;;;18.33;60.24
46001;BME280;72226;48.272;11.180;2023-08-30T12:31:00;95208.28;;;18.40;59.86
46001;BME280;72226;48.272;11.180;2023-08-30T12:33:26;95211.78;;;18.44;57.52
46001;BME280;72226;48.272;11.180;2023-08-30T12:35:52;95208.00;;;18.11;58.80
46001;BME280;72226;48.272;11.180;2023-08-30T12:38:17;95209.22;;;18.17;58.40
46001;BME280;72226;48.272;11.180;2023-08-30T12:40:44;95207.91;;;18.45;58.93
46001;BME280;72226;48.272;11.180;2023-08-30T12:43:10;95209.03;;;18.40;55.27
46001;BME280;72226;48.272;11.180;2023-08-30T12:45:36;95206.84;;;18.12;55.36
46001;BME280;72226;48.272;11.180;2023-08-30T12:48:02;95201.81;;;18.14;56.74
46001;BME280;72226;48.272;11.180;2023-08-30T12:50:27;95205.16;;;18.41;55.77
46001;BME280;72226;48.272;11.180;2023-08-30T12:52:53;95196.06;;;18.67;54.03